• Join FlightAware (Why Join?)
  • Login
  • US Flag 
07:45PM EDT


 

Airport Tracker/Info


-or-


 

Live Flight TrackerFlight Track Log ✈ SWA3497 ✈ 26-Apr-2013 ✈ KIAD - KMDW

Flight Track Log - Related Links

Times and Time Zones

All times are in EDT time to prevent confusion due to time zone crossing. See the SWA3497 flight status page for this flight to view local times or setup timezone preferences in your user account.

Time Position Orientation Groundspeed Altitude Reporting Facility
EDT Latitude Longitude Course Direction KTS MPH feet Rate Location/Type
09:52AM 38.9167 -77.5500 261° West 228 262 2,800  Level Potomac TRACON
09:54AM 38.8994 -77.6828 261° West 269 310 5,100 2,220 Climbing Washington Center
09:55AM 38.8917 -77.7625 263° West 269 310 8,300 3,600 Climbing Washington Center
09:56AM 38.8794 -77.8636 261° West 264 304 12,300 3,540 Climbing Washington Center
09:57AM 38.9175 -77.9394 303° West 249 287 15,500 1,800 Climbing Washington Center
09:58AM 38.9897 -77.9792 337° Northwest 226 260 16,000 660 Climbing Washington Center
09:59AM 38.9814 -78.0883 264° West 268 308 16,900 1,680 Climbing Washington Center
10:00AM 38.9642 -78.2133 260° West 300 345 19,400 2,580 Climbing Washington Center
10:01AM 38.9633 -78.3414 270° West 340 391 22,100 2,520 Climbing Washington Center
10:02AM 38.9686 -78.4750 273° West 367 422 24,500 2,280 Climbing Washington Center
10:03AM 38.9736 -78.6114 273° West 378 435 26,700 2,340 Climbing Washington Center
10:04AM 38.9750 -78.7156 271° West 383 441 29,300 1,980 Climbing Washington Center
10:05AM 38.9792 -78.8761 272° West 383 441 30,700 1,560 Climbing Washington Center
10:06AM 38.9836 -79.0125 272° West 383 441 32,500 1,140 Climbing Washington Center
10:07AM 38.9878 -79.1542 272° West 388 447 33,100 1,140 Climbing Washington Center
10:08AM 38.9983 -79.2883 276° West 388 447 34,800 1,560 Climbing Washington Center
10:09AM 39.0108 -79.4253 277° West 388 447 36,200 1,320 Climbing Washington Center
10:10AM 39.0211 -79.5594 276° West 388 447 37,500 900 Climbing Washington Center
10:11AM 39.0314 -79.6828 276° West 388 447 38,000 240 Climbing Washington Center
10:12AM 39.0436 -79.8117 277° West 380 437 38,000  Level Washington Center
10:13AM 39.0536 -79.9433 276° West 375 432 38,000  Level Washington Center
10:14AM 39.0633 -80.0750 275° West 375 432 38,000  Level Washington Center
10:14AM 39.0658 -80.1822 272° West 375 432 38,000  Level Indianapolis Center
10:15AM 39.0758 -80.3147 276° West 373 429 38,000  Level Indianapolis Center
10:16AM 39.0872 -80.4728 275° West 371 427 38,000  Level Indianapolis Center
10:18AM 39.0961 -80.6053 275° West 372 428 38,000  Level Indianapolis Center
10:19AM 39.1058 -80.7378 275° West 371 427 38,000  Level Indianapolis Center
10:20AM 39.1264 -80.8669 282° West 375 432 38,000  Level Indianapolis Center
10:21AM 39.1764 -80.9797 300° West 370 426 38,000  Level Indianapolis Center
10:22AM 39.2267 -81.0936 300° West 367 422 38,000  Level Indianapolis Center
10:23AM 39.2892 -81.2294 301° West 368 423 38,000  Level Indianapolis Center
10:24AM 39.3408 -81.3436 300° West 369 425 38,000  Level Indianapolis Center
10:25AM 39.3928 -81.4558 301° West 367 422 38,000  Level Indianapolis Center
10:26AM 39.4433 -81.5703 300° West 367 422 38,000  Level Indianapolis Center
10:27AM 39.4947 -81.6847 300° West 369 425 38,000  Level Indianapolis Center
10:28AM 39.5564 -81.8217 300° West 368 423 38,000  Level Indianapolis Center
10:29AM 39.6069 -81.9372 300° West 369 425 38,000  Level Indianapolis Center
10:31AM 39.7069 -82.1639 300° West 365 420 38,000  Level Indianapolis Center
10:32AM 39.7581 -82.2786 300° West 364 419 38,000  Level Indianapolis Center
10:33AM 39.8089 -82.3928 300° West 362 417 38,000  Level Indianapolis Center
10:34AM 39.8678 -82.5264 300° West 363 418 38,000  Level Indianapolis Center
10:35AM 39.9178 -82.6428 299° West 366 421 38,000  Level Indianapolis Center
10:36AM 39.9689 -82.7583 300° West 366 421 38,000  Level Indianapolis Center
10:37AM 40.0169 -82.8736 299° West 362 417 38,000  Level Indianapolis Center
10:38AM 40.0672 -82.9903 299° West 367 422 38,000  Level Indianapolis Center
10:39AM 40.1175 -83.1050 300° West 363 418 38,000  Level Indianapolis Center
10:40AM 40.1744 -83.2394 299° West 362 417 38,000  Level Indianapolis Center
10:41AM 40.2233 -83.3550 299° West 363 418 38,000 -420 Level Indianapolis Center
10:42AM 40.2722 -83.4708 299° West 364 419 37,200 -840 Descending Indianapolis Center
10:43AM 40.3214 -83.5872 299° West 364 419 36,300 -900 Descending Indianapolis Center
10:44AM 40.3708 -83.7031 299° West 362 417 35,400 -1,020 Descending Indianapolis Center
10:45AM 40.4183 -83.8181 299° West 358 412 34,300 -1,080 Descending Indianapolis Center
10:46AM 40.4642 -83.9267 299° West 343 395 33,200 -1,080 Descending Indianapolis Center
10:47AM 40.5150 -84.0486 299° West 326 375 32,100 -1,080 Descending Indianapolis Center
10:49AM 40.5578 -84.1508 299° West 318 366 31,000 -1,020 Descending Indianapolis Center
10:50AM 40.5997 -84.2539 298° West 316 364 30,000 -540 Descending Indianapolis Center
10:51AM 40.6411 -84.3536 299° West 310 357 30,000  Level Indianapolis Center
10:51AM 40.6553 -84.3867 299° West 310 357 30,000  Level Chicago Center
10:52AM 40.7094 -84.5197 298° West 338 389 30,000  Level Chicago Center
10:53AM 40.7550 -84.6314 298° West 346 398 30,000  Level Chicago Center
10:54AM 40.8003 -84.7425 298° West 344 396 30,000  Level Chicago Center
10:55AM 40.8469 -84.8556 299° West 349 402 30,000  Level Chicago Center
10:56AM 40.9083 -84.9553 309° West 351 404 30,000  Level Chicago Center
10:57AM 40.9692 -85.0589 308° West 353 406 30,000  Level Chicago Center
10:58AM 41.0417 -85.1831 308° West 353 406 30,000 -60 Level Chicago Center
10:59AM 41.1003 -85.2861 307° West 353 406 29,900 -1,020 Descending Chicago Center
11:00AM 41.1589 -85.3869 308° West 347 399 27,900 -1,920 Descending Chicago Center
11:01AM 41.2136 -85.4814 308° West 325 374 26,000 -1,920 Descending Chicago Center
11:02AM 41.2694 -85.5800 307° West 331 381 24,000 -1,380 Descending Chicago Center
11:03AM 41.3278 -85.6819 307° West 342 394 23,200 -900 Descending Chicago Center
11:04AM 41.3864 -85.7847 307° West 346 398 22,200 -1,260 Descending Chicago Center
11:05AM 41.4344 -85.8939 300° West 344 396 20,600 -2,340 Descending Chicago Center
11:07AM 41.4600 -86.0431 283° West 346 398 17,400 -2,940 Descending Chicago Center
11:08AM 41.4833 -86.1711 284° West 354 407 14,600 -2,340 Descending Chicago Center
11:09AM 41.5047 -86.2939 283° West 345 397 12,600 -1,800 Descending Chicago Center
11:10AM 41.5236 -86.4108 282° West 328 377 11,000 -1,320 Descending Chicago Center
11:11AM 41.5214 -86.5233 269° West 310 357 10,000 -540 Descending Chicago Center
11:12AM 41.4914 -86.6128 246° West 285 328 10,000  Level Chicago Center
11:13AM 41.4475 -86.6944 234° Southwest 273 314 10,000  Level Chicago Center
11:14AM 41.3947 -86.7911 234° Southwest 268 308 10,000  Level Chicago Center
11:15AM 41.3825 -86.8839 260° West 265 305 10,000 -540 Level Chicago Center
11:16AM 41.4200 -86.9681 301° West 269 310 9,000 -1,080 Descending Chicago Center
11:17AM 41.4617 -87.0517 304° West 271 312 7,800 -1,320 Descending Chicago Center
11:18AM 41.5033 -87.1317 305° West 269 310 6,400 -900 Descending Chicago Center
11:19AM 41.5172 -87.2228 282° West 255 293 6,000 -240 Descending Chicago Center
11:20AM 41.5297 -87.3369 278° West 257 296 6,000 -900 Level Chicago Center
11:21AM 41.5503 -87.4239 288° West 257 296 4,200 -1,020 Descending Chicago Center
11:22AM 41.5964 -87.4886 314° West 247 284 4,000 -120 Descending Chicago Center
11:23AM 41.6386 -87.5469 314° West 232 267 4,000 -180 Level Chicago Center
11:24AM 41.6747 -87.5958 315° West 211 243 3,700 -720 Descending Chicago Center
11:25AM 41.7167 -87.6500 316° Northwest 182 209 2,600 -780 Descending Chicago TRACON
11:26AM 41.7500 -87.6833 323° Northwest 196 226 2,200 -480 Descending Chicago TRACON
11:27AM 41.8000 -87.6833 360° North 170 196 1,600 -540 Descending Chicago TRACON
11:28AM 41.8000 -87.7167 270° West 131 151 1,100 -540 Descending Chicago TRACON
11:30AM 41.7833 -87.7500 340° North  Level FlightAware Approximate